createdAt,value
2023-03-30T00:00:18.525Z,12.46
2023-03-30T00:02:49.494Z,12.50
2023-03-30T00:05:19.959Z,12.50
2023-03-30T00:07:48.915Z,12.49
2023-03-30T00:10:19.373Z,12.47
2023-03-30T00:12:50.607Z,12.46
2023-03-30T00:15:21.777Z,12.44
2023-03-30T00:17:51.349Z,12.43
2023-03-30T00:20:22.292Z,12.43
2023-03-30T00:22:51.100Z,12.43
2023-03-30T00:25:20.238Z,12.42
2023-03-30T00:27:48.844Z,12.42
2023-03-30T00:30:19.304Z,12.43
2023-03-30T00:32:48.421Z,12.46
2023-03-30T00:35:17.295Z,12.48
2023-03-30T00:37:49.561Z,12.49
2023-03-30T00:40:21.800Z,12.49
2023-03-30T00:42:50.469Z,12.53
2023-03-30T00:45:25.717Z,12.51
2023-03-30T00:48:02.962Z,12.50
2023-03-30T00:50:37.655Z,12.46
2023-03-30T00:53:17.388Z,12.42
2023-03-30T00:55:48.465Z,12.37
2023-03-30T00:58:18.753Z,12.34
2023-03-30T01:00:48.573Z,12.32
2023-03-30T01:03:23.281Z,12.29
2023-03-30T01:05:54.453Z,12.29
2023-03-30T01:08:27.291Z,12.34
2023-03-30T01:10:56.637Z,12.38
2023-03-30T01:13:25.185Z,12.44
2023-03-30T01:16:08.070Z,12.47
2023-03-30T01:18:55.533Z,12.54
2023-03-30T01:22:24.091Z,12.56
2023-03-30T01:25:39.580Z,12.59
2023-03-30T01:28:36.477Z,12.66
2023-03-30T01:31:35.963Z,12.72
2023-03-30T01:34:52.518Z,12.78
2023-03-30T01:38:09.495Z,12.83
2023-03-30T01:40:44.059Z,12.87
2023-03-30T01:43:19.722Z,12.93
2023-03-30T01:45:56.805Z,12.94
2023-03-30T01:48:33.682Z,13.02
2023-03-30T01:51:08.149Z,13.07
2023-03-30T01:53:47.197Z,13.10
2023-03-30T01:56:21.942Z,13.14
2023-03-30T01:58:54.915Z,13.16
2023-03-30T02:01:24.377Z,13.20
2023-03-30T02:03:57.821Z,13.23
2023-03-30T02:06:38.755Z,13.22
2023-03-30T02:09:11.130Z,13.22
2023-03-30T02:11:45.949Z,13.21
2023-03-30T02:14:17.516Z,13.20
2023-03-30T02:16:50.380Z,13.16
2023-03-30T02:19:19.911Z,13.13
2023-03-30T02:21:50.549Z,13.09
2023-03-30T02:24:25.712Z,13.05
2023-03-30T02:26:55.945Z,13.01
2023-03-30T02:29:24.407Z,12.98
2023-03-30T02:31:57.409Z,12.94
2023-03-30T02:34:47.984Z,12.88
2023-03-30T02:37:41.806Z,12.82
2023-03-30T02:40:40.799Z,12.77
2023-03-30T02:43:26.228Z,12.74
2023-03-30T02:46:07.060Z,12.70
2023-03-30T02:48:45.603Z,12.64
2023-03-30T02:51:33.412Z,12.61
2023-03-30T02:54:12.840Z,12.59
2023-03-30T02:56:49.131Z,12.58
2023-03-30T02:59:23.145Z,12.57
2023-03-30T03:01:58.187Z,12.57
2023-03-30T03:04:29.879Z,12.54
2023-03-30T03:06:59.203Z,12.54
2023-03-30T03:09:27.719Z,12.51
2023-03-30T03:11:56.574Z,12.46
2023-03-30T03:14:27.202Z,12.41
2023-03-30T03:16:55.968Z,12.39
2023-03-30T03:19:24.726Z,12.40
2023-03-30T03:21:53.561Z,12.41
2023-03-30T03:24:22.006Z,12.40
2023-03-30T03:26:50.519Z,12.42
2023-03-30T03:29:18.931Z,12.42
2023-03-30T03:31:48.758Z,12.45
2023-03-30T03:34:18.128Z,12.45
2023-03-30T03:36:46.535Z,12.42
2023-03-30T03:39:15.216Z,12.39
2023-03-30T03:41:43.619Z,12.39
2023-03-30T03:44:12.056Z,12.40
2023-03-30T03:46:40.713Z,12.40
2023-03-30T03:49:10.753Z,12.42
2023-03-30T03:51:39.274Z,12.45
2023-03-30T03:54:08.136Z,12.48
2023-03-30T03:56:36.542Z,12.49
2023-03-30T03:59:05.607Z,12.50
2023-03-30T04:01:34.397Z,12.49
2023-03-30T04:04:02.850Z,12.49
2023-03-30T04:06:32.660Z,12.48
2023-03-30T04:09:01.805Z,12.45
2023-03-30T04:11:30.210Z,12.43
2023-03-30T04:13:58.583Z,12.41
2023-03-30T04:16:28.688Z,12.36
2023-03-30T04:18:58.106Z,12.30
2023-03-30T04:21:29.808Z,12.27
2023-03-30T04:23:59.777Z,12.26
2023-03-30T04:26:28.863Z,12.25
2023-03-30T04:28:57.276Z,12.21
2023-03-30T04:31:25.764Z,12.18
2023-03-30T04:33:54.682Z,12.16
2023-03-30T04:36:23.369Z,12.13
2023-03-30T04:38:59.864Z,12.11
2023-03-30T04:41:33.524Z,12.08
2023-03-30T04:44:07.556Z,12.06
2023-03-30T04:46:36.682Z,12.02
2023-03-30T04:49:06.002Z,11.99
2023-03-30T04:51:34.520Z,11.97
2023-03-30T04:54:03.280Z,11.97
2023-03-30T04:56:33.042Z,11.95
2023-03-30T04:59:01.466Z,11.93
2023-03-30T05:01:29.876Z,11.91
2023-03-30T05:03:58.418Z,11.89
2023-03-30T05:06:27.235Z,11.88
2023-03-30T05:08:55.650Z,11.86
2023-03-30T05:11:24.092Z,11.83
2023-03-30T05:13:55.159Z,11.80
2023-03-30T05:16:23.763Z,11.79
2023-03-30T05:18:52.164Z,11.82
2023-03-30T05:21:20.660Z,11.84
2023-03-30T05:23:49.182Z,11.87
2023-03-30T05:26:17.794Z,11.93
2023-03-30T05:28:47.868Z,11.98
2023-03-30T05:31:18.329Z,12.03
2023-03-30T05:33:47.016Z,12.09
2023-03-30T05:36:16.182Z,12.12
2023-03-30T05:38:44.655Z,12.16
2023-03-30T05:41:13.079Z,12.17
2023-03-30T05:43:41.520Z,12.19
2023-03-30T05:46:10.019Z,12.26
2023-03-30T05:48:39.797Z,12.32
2023-03-30T05:51:09.176Z,12.38
2023-03-30T05:53:37.673Z,12.41
2023-03-30T05:56:07.324Z,12.42
2023-03-30T05:58:35.740Z,12.44
2023-03-30T06:01:05.924Z,12.48
2023-03-30T06:03:34.742Z,12.56
2023-03-30T06:06:05.110Z,12.66
2023-03-30T06:08:33.641Z,12.77
2023-03-30T06:11:02.522Z,12.86
2023-03-30T06:13:31.854Z,12.95
2023-03-30T06:16:03.141Z,13.00
2023-03-30T06:18:32.164Z,13.05
2023-03-30T06:21:02.915Z,13.10
2023-03-30T06:23:32.998Z,13.18
2023-03-30T06:26:01.559Z,13.27
2023-03-30T06:28:30.143Z,13.37
2023-03-30T06:30:58.789Z,13.45
2023-03-30T06:33:27.674Z,13.55
2023-03-30T06:35:56.402Z,13.64
2023-03-30T06:38:25.424Z,13.73
2023-03-30T06:40:55.279Z,13.83
2023-03-30T06:43:25.897Z,13.96
2023-03-30T06:45:57.190Z,14.03
2023-03-30T06:48:26.770Z,14.13
2023-03-30T06:50:55.808Z,14.22
2023-03-30T06:53:25.752Z,14.30
2023-03-30T06:55:57.878Z,14.35
2023-03-30T06:58:28.339Z,14.39
2023-03-30T07:00:58.116Z,14.45
2023-03-30T07:03:29.990Z,14.53
2023-03-30T07:05:58.543Z,14.57
2023-03-30T07:08:27.076Z,14.61
2023-03-30T07:10:57.066Z,14.62
2023-03-30T07:13:25.802Z,14.64
2023-03-30T07:15:54.327Z,14.69
2023-03-30T07:18:22.824Z,14.76
2023-03-30T07:20:51.401Z,14.83
2023-03-30T07:23:19.912Z,14.89
2023-03-30T07:25:48.437Z,14.91
2023-03-30T07:28:18.474Z,14.92
2023-03-30T07:30:47.133Z,14.96
2023-03-30T07:33:15.887Z,14.99
2023-03-30T07:35:46.153Z,15.03
2023-03-30T07:38:15.340Z,15.07
2023-03-30T07:40:43.838Z,15.11
2023-03-30T07:43:12.338Z,15.21
2023-03-30T07:45:42.261Z,15.30
2023-03-30T07:48:10.753Z,15.49
2023-03-30T07:50:39.342Z,15.59
2023-03-30T07:53:08.060Z,15.68
2023-03-30T07:55:37.746Z,15.71
2023-03-30T07:58:07.897Z,15.64
2023-03-30T08:00:36.604Z,15.64
2023-03-30T08:03:06.540Z,15.68
2023-03-30T08:05:35.058Z,15.76
2023-03-30T08:08:03.794Z,15.84
2023-03-30T08:10:32.378Z,15.94
2023-03-30T08:13:01.300Z,16.08
2023-03-30T08:15:29.893Z,16.26
2023-03-30T08:17:59.032Z,16.50
2023-03-30T08:20:29.035Z,16.72
2023-03-30T08:22:57.650Z,16.97
2023-03-30T08:25:27.261Z,17.12
2023-03-30T08:27:56.305Z,17.25
2023-03-30T08:30:25.081Z,17.36
2023-03-30T08:32:54.343Z,17.51
2023-03-30T08:35:23.709Z,17.59
2023-03-30T08:37:53.988Z,17.65
2023-03-30T08:40:23.345Z,17.71
2023-03-30T08:43:30.617Z,17.80
2023-03-30T08:46:01.753Z,17.96
2023-03-30T08:48:37.930Z,18.07
2023-03-30T08:51:20.124Z,18.12
2023-03-30T08:53:54.360Z,18.20
2023-03-30T08:56:26.285Z,18.17
2023-03-30T08:59:06.379Z,18.12
2023-03-30T09:01:45.767Z,18.08
2023-03-30T09:04:24.807Z,18.12
2023-03-30T09:06:56.216Z,18.21
2023-03-30T09:09:30.158Z,18.33
2023-03-30T09:12:05.965Z,18.45
2023-03-30T09:14:39.933Z,18.58
2023-03-30T09:17:17.170Z,18.74
2023-03-30T09:19:53.974Z,18.89
2023-03-30T09:22:32.838Z,18.97
2023-03-30T09:25:03.968Z,19.07
2023-03-30T09:27:43.442Z,19.19
2023-03-30T09:30:20.703Z,19.28
2023-03-30T09:33:01.371Z,19.29
2023-03-30T09:35:40.481Z,19.30
2023-03-30T09:38:13.218Z,19.34
2023-03-30T09:41:07.366Z,19.35
2023-03-30T09:43:43.668Z,19.40
2023-03-30T09:46:12.472Z,19.44
2023-03-30T09:48:42.704Z,19.52
2023-03-30T09:51:25.165Z,19.51
2023-03-30T09:54:01.741Z,19.46
2023-03-30T09:56:42.080Z,19.42
2023-03-30T09:59:29.479Z,19.29
2023-03-30T10:02:16.655Z,19.16
2023-03-30T10:05:04.328Z,19.08
2023-03-30T10:07:36.605Z,19.07
2023-03-30T10:10:17.541Z,19.06
2023-03-30T10:12:50.243Z,19.11
2023-03-30T10:15:22.107Z,19.15
2023-03-30T10:17:56.546Z,19.23
2023-03-30T10:20:30.862Z,19.30
2023-03-30T10:23:05.245Z,19.38
2023-03-30T10:25:34.953Z,19.48
2023-03-30T10:28:07.164Z,19.61
2023-03-30T10:30:36.501Z,19.73
2023-03-30T10:33:05.426Z,19.81
2023-03-30T10:35:38.894Z,19.91
2023-03-30T10:38:10.490Z,19.97
2023-03-30T10:40:42.229Z,19.97
2023-03-30T10:43:16.650Z,19.91
2023-03-30T10:45:49.518Z,19.84
2023-03-30T10:48:54.143Z,19.82
2023-03-30T10:51:34.534Z,19.85
2023-03-30T10:54:12.679Z,19.87
2023-03-30T10:56:47.257Z,19.89
2023-03-30T10:59:40.963Z,19.86
2023-03-30T11:02:44.252Z,19.80
2023-03-30T11:05:18.464Z,19.80
2023-03-30T11:07:54.268Z,19.78
2023-03-30T11:10:29.540Z,19.77
2023-03-30T11:13:03.158Z,19.72
2023-03-30T11:15:40.666Z,19.66
2023-03-30T11:18:18.342Z,19.62
2023-03-30T11:20:53.656Z,19.59
2023-03-30T11:23:31.555Z,19.56
2023-03-30T11:26:04.610Z,19.56
2023-03-30T11:28:53.029Z,19.60
2023-03-30T11:31:48.661Z,19.58
2023-03-30T11:34:28.112Z,19.79
2023-03-30T11:37:07.553Z,19.71
2023-03-30T11:39:42.079Z,19.70
2023-03-30T11:42:20.053Z,19.68
2023-03-30T11:44:48.597Z,19.68
2023-03-30T11:47:43.353Z,19.65
2023-03-30T11:50:31.481Z,19.63
2023-03-30T11:53:14.485Z,19.61
2023-03-30T11:56:03.477Z,19.61
2023-03-30T11:58:38.232Z,19.61
2023-03-30T12:01:25.387Z,19.71
2023-03-30T12:04:01.271Z,19.96
2023-03-30T12:06:33.394Z,20.28
2023-03-30T12:09:33.333Z,20.65
2023-03-30T12:12:15.714Z,21.02
2023-03-30T12:15:13.559Z,21.42
2023-03-30T12:17:51.577Z,21.71
2023-03-30T12:20:37.026Z,21.83
2023-03-30T12:23:23.977Z,22.13
2023-03-30T12:26:19.059Z,22.17
2023-03-30T12:29:15.037Z,22.22
2023-03-30T12:32:08.583Z,22.25
2023-03-30T12:34:41.663Z,22.29
2023-03-30T12:37:17.154Z,22.38
2023-03-30T12:39:49.991Z,22.51
2023-03-30T12:42:35.335Z,22.49
2023-03-30T12:45:22.926Z,22.29
2023-03-30T12:48:15.166Z,22.08
2023-03-30T12:50:56.602Z,21.84
2023-03-30T12:54:21.770Z,21.54
2023-03-30T12:57:00.200Z,21.26
2023-03-30T13:00:19.125Z,20.81
2023-03-30T13:03:03.139Z,20.42
2023-03-30T13:05:35.417Z,20.10
2023-03-30T13:08:07.796Z,19.84
2023-03-30T13:10:43.839Z,19.67
2023-03-30T13:13:24.963Z,19.59
2023-03-30T13:15:57.643Z,19.61
2023-03-30T13:18:41.170Z,19.55
2023-03-30T13:21:25.160Z,19.47
2023-03-30T13:24:23.195Z,19.41
2023-03-30T13:26:54.152Z,19.40
2023-03-30T13:29:31.011Z,19.37
2023-03-30T13:32:20.878Z,19.29
2023-03-30T13:35:27.921Z,19.21
2023-03-30T13:38:40.484Z,19.13
2023-03-30T13:41:32.268Z,19.11
2023-03-30T13:44:20.841Z,19.11
2023-03-30T13:46:54.462Z,19.08
2023-03-30T13:49:42.126Z,19.01
2023-03-30T13:52:15.754Z,18.97
2023-03-30T13:54:45.504Z,18.97
2023-03-30T13:57:21.211Z,18.96
2023-03-30T13:59:57.961Z,18.97
2023-03-30T14:02:30.664Z,18.96
2023-03-30T14:05:15.464Z,18.91
2023-03-30T14:07:47.547Z,18.93
2023-03-30T14:10:19.731Z,18.96
2023-03-30T14:12:53.599Z,18.97
2023-03-30T14:15:28.665Z,18.98
2023-03-30T14:18:01.745Z,18.99
2023-03-30T14:20:49.378Z,19.04
2023-03-30T14:23:22.203Z,19.12
2023-03-30T14:25:54.553Z,19.16
2023-03-30T14:28:23.238Z,19.22
2023-03-30T14:30:56.054Z,19.26
2023-03-30T14:33:25.769Z,19.33
2023-03-30T14:35:56.733Z,19.40
2023-03-30T14:38:28.387Z,19.46
2023-03-30T14:40:57.411Z,19.51
2023-03-30T14:43:30.159Z,19.56
2023-03-30T14:46:04.165Z,19.60
2023-03-30T14:48:36.450Z,19.69
2023-03-30T14:51:09.625Z,19.76
2023-03-30T14:53:38.260Z,19.87
2023-03-30T14:56:08.862Z,19.95
2023-03-30T14:58:37.508Z,20.00
2023-03-30T15:01:11.516Z,20.03
2023-03-30T15:03:41.987Z,20.03
2023-03-30T15:06:16.553Z,20.00
2023-03-30T15:08:48.797Z,19.96
2023-03-30T15:11:22.585Z,19.90
2023-03-30T15:13:54.053Z,19.87
2023-03-30T15:16:28.627Z,19.83
2023-03-30T15:19:05.406Z,19.77
2023-03-30T15:21:37.541Z,19.69
2023-03-30T15:24:09.679Z,19.61
2023-03-30T15:26:47.448Z,19.51
2023-03-30T15:29:18.053Z,19.43
2023-03-30T15:31:59.209Z,19.30
2023-03-30T15:34:27.704Z,19.17
2023-03-30T15:36:57.000Z,19.04
2023-03-30T15:39:33.626Z,18.91
2023-03-30T15:42:05.464Z,18.80
2023-03-30T15:44:37.329Z,18.72
2023-03-30T15:47:13.783Z,18.63
2023-03-30T15:49:45.149Z,18.55
2023-03-30T15:52:20.289Z,18.49
2023-03-30T15:54:53.889Z,18.42
2023-03-30T15:57:26.728Z,18.36
2023-03-30T15:59:58.189Z,18.30
2023-03-30T16:02:41.655Z,18.22
2023-03-30T16:05:19.050Z,18.16
2023-03-30T16:07:47.832Z,18.14
2023-03-30T16:10:20.898Z,18.09
2023-03-30T16:12:50.433Z,18.03
2023-03-30T16:15:21.622Z,17.97
2023-03-30T16:17:51.884Z,17.93
2023-03-30T16:20:23.365Z,17.86
2023-03-30T16:22:51.851Z,17.78
2023-03-30T16:25:26.009Z,17.69
2023-03-30T16:27:59.925Z,17.65
2023-03-30T16:30:34.408Z,17.59
2023-03-30T16:33:05.357Z,17.58
2023-03-30T16:35:34.477Z,17.57
2023-03-30T16:38:03.660Z,17.56
2023-03-30T16:40:35.976Z,17.52
2023-03-30T16:43:05.403Z,17.51
2023-03-30T16:45:35.052Z,17.49
2023-03-30T16:48:06.215Z,17.48
2023-03-30T16:50:39.691Z,17.46
2023-03-30T16:53:09.832Z,17.46
2023-03-30T16:55:39.894Z,17.45
2023-03-30T16:58:10.726Z,17.44
2023-03-30T17:00:43.608Z,17.43
2023-03-30T17:03:15.429Z,17.43
2023-03-30T17:05:48.493Z,17.44
2023-03-30T17:08:24.920Z,17.43
2023-03-30T17:10:56.659Z,17.42
2023-03-30T17:13:26.275Z,17.43
2023-03-30T17:15:57.379Z,17.42
2023-03-30T17:18:28.820Z,17.44
2023-03-30T17:20:59.249Z,17.46
2023-03-30T17:23:31.315Z,17.49
2023-03-30T17:26:02.653Z,17.51
2023-03-30T17:28:33.475Z,17.54
2023-03-30T17:31:05.396Z,17.58
2023-03-30T17:33:37.082Z,17.60
2023-03-30T17:36:12.913Z,17.63
2023-03-30T17:38:43.860Z,17.66
2023-03-30T17:41:15.326Z,17.70
2023-03-30T17:43:44.970Z,17.72
2023-03-30T17:46:15.370Z,17.75
2023-03-30T17:48:46.240Z,17.77
2023-03-30T17:51:17.088Z,17.79
2023-03-30T17:53:46.662Z,17.81
2023-03-30T17:56:21.115Z,17.83
2023-03-30T17:58:53.637Z,17.84
2023-03-30T18:01:23.913Z,17.86
2023-03-30T18:03:55.157Z,17.86
2023-03-30T18:06:25.005Z,17.88
2023-03-30T18:08:54.987Z,17.91
2023-03-30T18:11:24.812Z,17.93
2023-03-30T18:13:54.580Z,17.95
2023-03-30T18:16:25.088Z,17.96
2023-03-30T18:18:58.053Z,17.98
2023-03-30T18:21:29.882Z,17.99
2023-03-30T18:24:03.679Z,18.02
2023-03-30T18:26:34.722Z,18.03
2023-03-30T18:29:08.003Z,18.05
2023-03-30T18:31:38.545Z,18.03
2023-03-30T18:34:10.626Z,18.03
2023-03-30T18:36:41.229Z,18.03
2023-03-30T18:39:18.707Z,18.02
2023-03-30T18:41:51.705Z,18.01
2023-03-30T18:44:22.560Z,17.97
2023-03-30T18:46:54.410Z,17.93
2023-03-30T18:49:26.222Z,17.89
2023-03-30T18:51:56.673Z,17.88
2023-03-30T18:54:26.824Z,17.86
2023-03-30T18:56:58.134Z,17.86
2023-03-30T18:59:32.991Z,17.87
2023-03-30T19:02:02.876Z,17.88
2023-03-30T19:04:36.239Z,17.88
2023-03-30T19:07:08.292Z,17.90
2023-03-30T19:09:43.104Z,17.92
2023-03-30T19:12:16.835Z,17.94
2023-03-30T19:14:48.743Z,17.96
2023-03-30T19:17:19.477Z,17.96
2023-03-30T19:19:51.303Z,17.97
2023-03-30T19:22:22.005Z,18.00
2023-03-30T19:24:54.081Z,18.00
2023-03-30T19:27:24.817Z,18.01
2023-03-30T19:29:57.085Z,18.02
2023-03-30T19:32:28.382Z,18.01
2023-03-30T19:35:00.642Z,17.99
2023-03-30T19:37:30.492Z,17.99
2023-03-30T19:40:03.177Z,17.98
2023-03-30T19:42:34.731Z,17.97
2023-03-30T19:45:06.582Z,17.95
2023-03-30T19:47:39.457Z,17.93
2023-03-30T19:50:18.605Z,17.91
2023-03-30T19:52:50.443Z,17.88
2023-03-30T19:55:22.769Z,17.86
2023-03-30T19:57:53.456Z,17.84
2023-03-30T20:00:24.062Z,17.82
2023-03-30T20:03:00.299Z,17.80
2023-03-30T20:05:34.186Z,17.76
2023-03-30T20:08:16.901Z,17.74
2023-03-30T20:10:53.216Z,17.72
2023-03-30T20:13:24.495Z,17.70
2023-03-30T20:15:57.258Z,17.68
2023-03-30T20:18:26.508Z,17.66
2023-03-30T20:20:56.519Z,17.64
2023-03-30T20:23:25.732Z,17.63
2023-03-30T20:25:57.345Z,17.61
2023-03-30T20:28:26.626Z,17.59
2023-03-30T20:30:57.194Z,17.57
2023-03-30T20:33:26.905Z,17.58
2023-03-30T20:35:58.465Z,17.57
2023-03-30T20:38:27.943Z,17.57
2023-03-30T20:40:58.357Z,17.56
2023-03-30T20:43:27.306Z,17.58
2023-03-30T20:46:02.589Z,17.59
2023-03-30T20:48:34.006Z,17.62
2023-03-30T20:51:05.302Z,17.62
2023-03-30T20:53:35.834Z,17.65
2023-03-30T20:56:09.255Z,17.67
2023-03-30T20:58:38.845Z,17.69
2023-03-30T21:01:17.249Z,17.70
2023-03-30T21:03:50.076Z,17.73
2023-03-30T21:06:23.715Z,17.73
2023-03-30T21:08:52.988Z,17.75
2023-03-30T21:11:22.679Z,17.76
2023-03-30T21:13:51.730Z,17.77
2023-03-30T21:16:20.723Z,17.80
2023-03-30T21:18:49.726Z,17.85
2023-03-30T21:21:20.210Z,17.89
2023-03-30T21:23:48.781Z,17.94
2023-03-30T21:26:18.577Z,17.98
2023-03-30T21:28:47.170Z,18.00
2023-03-30T21:31:17.147Z,17.99
2023-03-30T21:33:46.305Z,17.95
2023-03-30T21:36:15.070Z,17.89
2023-03-30T21:38:45.012Z,17.81
2023-03-30T21:41:15.913Z,17.75
2023-03-30T21:43:47.337Z,17.68
2023-03-30T21:46:19.057Z,17.64
2023-03-30T21:48:51.749Z,17.61
2023-03-30T21:51:27.259Z,17.57
2023-03-30T21:53:58.827Z,17.52
2023-03-30T21:56:31.212Z,17.46
2023-03-30T21:58:59.911Z,17.40
2023-03-30T22:01:28.787Z,17.35
2023-03-30T22:03:58.545Z,17.30
2023-03-30T22:06:27.081Z,17.26
2023-03-30T22:08:57.005Z,17.23
2023-03-30T22:11:27.915Z,17.20
2023-03-30T22:13:56.520Z,17.19
2023-03-30T22:16:28.979Z,17.17
2023-03-30T22:18:57.629Z,17.13
2023-03-30T22:21:29.266Z,17.10
2023-03-30T22:23:59.168Z,17.06
2023-03-30T22:26:28.205Z,17.03
2023-03-30T22:28:57.138Z,16.99
2023-03-30T22:31:26.635Z,16.96
2023-03-30T22:33:56.483Z,16.92
2023-03-30T22:36:29.944Z,16.87
2023-03-30T22:39:01.868Z,16.81
2023-03-30T22:41:30.538Z,16.78
2023-03-30T22:43:59.931Z,16.74
2023-03-30T22:46:29.426Z,16.70
2023-03-30T22:49:00.257Z,16.66
2023-03-30T22:51:28.772Z,16.63
2023-03-30T22:54:00.106Z,16.59
2023-03-30T22:56:30.368Z,16.56
2023-03-30T22:59:01.019Z,16.53
2023-03-30T23:01:32.078Z,16.50
2023-03-30T23:04:01.244Z,16.47
2023-03-30T23:06:29.925Z,16.43
2023-03-30T23:09:01.576Z,16.40
2023-03-30T23:11:30.256Z,16.37
2023-03-30T23:14:05.456Z,16.32
2023-03-30T23:16:35.994Z,16.29
2023-03-30T23:19:05.553Z,16.27
2023-03-30T23:21:35.940Z,16.22
2023-03-30T23:24:11.087Z,16.18
2023-03-30T23:26:39.899Z,16.14
2023-03-30T23:29:08.461Z,16.10
2023-03-30T23:31:37.030Z,16.06
2023-03-30T23:34:05.733Z,16.03
2023-03-30T23:36:34.961Z,15.99
2023-03-30T23:39:03.531Z,15.94
2023-03-30T23:41:33.395Z,15.89
2023-03-30T23:44:01.896Z,15.84
2023-03-30T23:46:30.931Z,15.81
2023-03-30T23:48:59.752Z,15.76
2023-03-30T23:51:28.192Z,15.72
2023-03-30T23:54:05.988Z,15.69
2023-03-30T23:56:37.812Z,15.65
2023-03-30T23:59:06.795Z,15.62
